Time;durP1;ratioP1;P1;durP2;ratioP2;P2;SDS_P1;SDS_P2;PMS_P1;PMS_P2;Temp;Humidity;BMP_temperature;BMP_pressure;BME280_temperature;BME280_humidity;BME280_pressure;Samples;Min_cycle;Max_cycle;Signal;HPM_P1;HPM_P2
2022/08/15 00:00:33;;;;;;;7.03;6.32;;;;;;;24.72;100.00;97832.03;5095124;28;20195;-79
2022/08/15 00:03:03;;;;;;;9.75;7.03;;;;;;;24.73;100.00;97831.78;5093554;28;20187;-79
2022/08/15 00:05:40;;;;;;;7.97;6.38;;;;;;;24.34;100.00;97834.81;5092957;28;20196;-79
2022/08/15 00:08:10;;;;;;;8.82;6.07;;;;;;;24.65;100.00;97831.25;5092784;28;20198;-79
2022/08/15 00:11:03;;;;;;;6.88;6.18;;;;;;;24.57;100.00;97832.34;5093461;28;20210;-79
2022/08/15 00:13:51;;;;;;;8.77;6.47;;;;;;;24.66;100.00;97824.78;5094533;28;20195;-79
2022/08/15 00:16:35;;;;;;;9.18;6.22;;;;;;;24.76;100.00;97823.22;5092890;28;20225;-80
2022/08/15 00:19:08;;;;;;;6.75;6.05;;;;;;;24.76;100.00;97834.06;5092055;28;20187;-80
2022/08/15 00:21:38;;;;;;;6.85;6.13;;;;;;;24.78;100.00;97815.69;5093065;28;20211;-79
2022/08/15 00:24:09;;;;;;;7.53;6.70;;;;;;;24.77;100.00;97808.63;5093813;28;20255;-79
2022/08/15 00:26:51;;;;;;;7.90;6.60;;;;;;;24.83;100.00;97812.34;5091752;28;20195;-80
2022/08/15 00:29:25;;;;;;;7.90;6.57;;;;;;;24.91;100.00;97813.94;5093003;28;20217;-80
2022/08/15 00:32:07;;;;;;;6.82;6.13;;;;;;;24.87;100.00;97816.25;5061531;28;20257;-80
2022/08/15 00:34:58;;;;;;;6.97;6.10;;;;;;;24.81;100.00;97817.16;5092975;28;20199;-79
2022/08/15 00:37:26;;;;;;;7.22;6.00;;;;;;;24.76;100.00;97819.69;5049828;28;20223;-80
2022/08/15 00:39:58;;;;;;;8.75;6.35;;;;;;;24.80;100.00;97815.47;5045696;28;20243;-80
2022/08/15 00:42:28;;;;;;;7.95;6.68;;;;;;;24.67;100.00;97815.59;5047431;28;20229;-79
2022/08/15 00:44:59;;;;;;;6.85;6.07;;;;;;;24.75;100.00;97818.84;5042932;28;20197;-80
2022/08/15 00:47:42;;;;;;;7.78;6.20;;;;;;;24.61;100.00;97819.16;5048079;28;20224;-80
2022/08/15 00:50:16;;;;;;;8.27;6.47;;;;;;;24.06;100.00;97816.22;5050351;28;20201;-80
2022/08/15 00:53:04;;;;;;;8.10;6.97;;;;;;;24.21;100.00;97814.00;5038649;28;20207;-80
2022/08/15 00:55:36;;;;;;;8.57;6.65;;;;;;;24.07;100.00;97812.47;5054004;28;20193;-80
2022/08/15 00:58:06;;;;;;;7.57;6.20;;;;;;;24.13;100.00;97820.53;5050582;28;20742;-80
2022/08/15 01:00:55;;;;;;;7.05;6.40;;;;;;;24.12;100.00;97818.84;5054360;28;20247;-80
2022/08/15 01:03:31;;;;;;;7.10;6.40;;;;;;;23.89;100.00;97827.53;5094824;28;20257;-79
2022/08/15 01:06:22;;;;;;;8.27;6.50;;;;;;;23.93;100.00;97825.22;5096199;28;20222;-80
2022/08/15 01:09:00;;;;;;;7.20;6.10;;;;;;;24.12;100.00;97821.56;5069596;28;20275;-79
2022/08/15 01:11:41;;;;;;;6.55;5.95;;;;;;;24.21;100.00;97824.84;5072392;28;20203;-80
2022/08/15 01:14:12;;;;;;;8.18;6.80;;;;;;;24.20;100.00;97815.06;5073976;28;20670;-79
2022/08/15 01:17:04;;;;;;;6.95;6.25;;;;;;;24.34;100.00;97818.56;5073641;28;20848;-79
2022/08/15 01:19:43;;;;;;;7.55;6.50;;;;;;;24.13;100.00;97814.31;5068399;28;20296;-79
2022/08/15 01:22:23;;;;;;;7.85;6.22;;;;;;;23.89;100.00;97813.19;5072487;28;20198;-80
2022/08/15 01:25:00;;;;;;;6.97;6.30;;;;;;;23.68;100.00;97812.44;5070872;28;20204;-79
2022/08/15 01:27:53;;;;;;;7.55;6.78;;;;;;;23.81;100.00;97813.41;5092128;28;20207;-79
2022/08/15 01:30:25;;;;;;;7.28;6.57;;;;;;;23.81;100.00;97808.84;5093224;28;20206;-79
2022/08/15 01:33:19;;;;;;;7.05;6.35;;;;;;;23.92;100.00;97820.84;5094838;28;20196;-79
2022/08/15 01:35:51;;;;;;;7.20;6.50;;;;;;;23.84;100.00;97821.97;5093664;28;20304;-79
2022/08/15 01:38:27;;;;;;;7.38;6.68;;;;;;;23.12;100.00;97823.00;5095580;28;20229;-79
2022/08/15 01:41:24;;;;;;;7.47;6.68;;;;;;;22.96;100.00;97824.25;5095378;28;20227;-79
2022/08/15 01:44:17;;;;;;;9.60;6.60;;;;;;;23.00;100.00;97830.91;5095592;28;20192;-79
2022/08/15 01:47:05;;;;;;;8.93;6.82;;;;;;;22.62;100.00;97830.69;5095439;28;20274;-80
2022/08/15 01:49:46;;;;;;;8.20;6.82;;;;;;;22.74;100.00;97829.03;5093138;28;20192;-79
2022/08/15 01:52:33;;;;;;;8.65;6.97;;;;;;;23.04;100.00;97836.72;5097776;27;20377;-79
2022/08/15 01:55:27;;;;;;;7.20;6.53;;;;;;;23.40;100.00;97838.94;5095553;28;20195;-79
2022/08/15 01:58:04;;;;;;;11.18;7.00;;;;;;;23.41;100.00;97836.00;5095274;28;20213;-79
2022/08/15 02:00:35;;;;;;;7.68;6.45;;;;;;;23.40;100.00;97831.66;5093535;28;20205;-79
2022/08/15 02:03:12;;;;;;;7.25;6.55;;;;;;;23.65;100.00;97825.56;5058630;28;20191;-79
2022/08/15 02:05:50;;;;;;;7.13;6.43;;;;;;;23.49;100.00;97837.66;5097442;27;20203;-79
2022/08/15 02:08:24;;;;;;;6.90;5.88;;;;;;;23.27;100.00;97839.81;5092619;28;20195;-79
2022/08/15 02:11:04;;;;;;;7.05;6.35;;;;;;;23.17;100.00;97833.19;5094947;28;20290;-79
2022/08/15 02:13:48;;;;;;;7.85;6.90;;;;;;;23.08;100.00;97828.00;5092506;28;20203;-79
2022/08/15 02:16:17;;;;;;;7.28;6.60;;;;;;;23.09;100.00;97824.25;5095238;28;20187;-80
2022/08/15 02:18:48;;;;;;;8.25;7.00;;;;;;;22.95;100.00;97821.75;5093287;28;20219;-79
2022/08/15 02:21:21;;;;;;;7.57;6.28;;;;;;;22.84;100.00;97818.66;5049569;28;20197;-79
2022/08/15 02:24:07;;;;;;;6.97;6.25;;;;;;;23.14;100.00;97827.13;5052534;28;20219;-80
2022/08/15 02:26:49;;;;;;;8.75;6.68;;;;;;;22.72;100.00;97814.06;5050561;28;20205;-79
2022/08/15 02:29:22;;;;;;;8.00;7.03;;;;;;;23.04;100.00;97820.50;5046496;28;20189;-79
2022/08/15 02:31:52;;;;;;;7.10;6.50;;;;;;;23.08;100.00;97822.59;5049742;28;20276;-79
2022/08/15 02:34:20;;;;;;;8.05;7.03;;;;;;;23.27;100.00;97826.28;5044264;28;20197;-79
2022/08/15 02:37:11;;;;;;;7.25;6.53;;;;;;;23.19;100.00;97823.81;5052360;28;20221;-79
2022/08/15 02:39:44;;;;;;;7.20;6.47;;;;;;;23.25;100.00;97820.25;5073018;28;20704;-79
2022/08/15 02:42:25;;;;;;;8.90;7.13;;;;;;;23.36;100.00;97819.63;5089887;28;20273;-79
2022/08/15 02:44:56;;;;;;;7.10;6.40;;;;;;;23.41;100.00;97822.50;5089934;28;20207;-80
2022/08/15 02:47:25;;;;;;;7.43;6.72;;;;;;;23.61;100.00;97822.44;5082489;28;20313;-80
2022/08/15 02:49:54;;;;;;;8.05;6.28;;;;;;;23.59;100.00;97818.31;5089648;28;20341;-79
2022/08/15 02:52:23;;;;;;;7.72;6.43;;;;;;;23.60;100.00;97819.97;5091666;28;20218;-80
2022/08/15 02:54:52;;;;;;;8.98;6.20;;;;;;;23.83;100.00;97822.13;5092051;28;20227;-79
2022/08/15 02:57:32;;;;;;;7.00;6.30;;;;;;;23.62;100.00;97825.97;5056517;28;20211;-79
2022/08/15 03:00:23;;;;;;;7.53;6.78;;;;;;;23.59;100.00;97819.13;5093003;28;20215;-79
2022/08/15 03:02:58;;;;;;;7.13;6.40;;;;;;;23.50;100.00;97831.19;5086655;28;20191;-79
2022/08/15 03:05:31;;;;;;;7.20;6.50;;;;;;;23.56;100.00;97833.06;5050128;28;20197;-80
2022/08/15 03:08:00;;;;;;;7.88;6.68;;;;;;;23.51;100.00;97830.16;5046116;28;20204;-80
2022/08/15 03:10:29;;;;;;;7.63;6.63;;;;;;;23.34;100.00;97843.28;5048753;28;20224;-80
2022/08/15 03:13:01;;;;;;;7.40;6.70;;;;;;;23.21;100.00;97846.03;5051807;28;20201;-80
2022/08/15 03:15:38;;;;;;;7.80;6.28;;;;;;;22.81;100.00;97848.75;5048612;28;20200;-80
2022/08/15 03:18:08;;;;;;;7.15;6.45;;;;;;;22.32;100.00;97832.97;5049337;28;20338;-80
2022/08/15 03:20:39;;;;;;;7.30;6.65;;;;;;;22.30;100.00;97835.03;5051484;28;20221;-80
2022/08/15 03:23:12;;;;;;;8.48;7.22;;;;;;;22.50;100.00;97848.53;5046202;28;20239;-79
2022/08/15 03:25:45;;;;;;;7.55;6.30;;;;;;;22.58;100.00;97834.81;5046947;28;20201;-79
2022/08/15 03:28:24;;;;;;;8.52;6.90;;;;;;;22.63;100.00;97837.75;5049936;28;20668;-79
2022/08/15 03:30:58;;;;;;;7.63;6.63;;;;;;;21.87;100.00;97840.69;5083452;28;20184;-79
2022/08/15 03:33:28;;;;;;;7.47;6.77;;;;;;;21.73;100.00;97841.69;5094045;28;20275;-79
2022/08/15 03:36:20;;;;;;;8.15;7.35;;;;;;;22.18;100.00;97836.66;5093654;28;20202;-79
2022/08/15 03:38:51;;;;;;;9.10;7.32;;;;;;;22.34;100.00;97838.13;5088913;28;20215;-80
2022/08/15 03:41:25;;;;;;;8.47;7.57;;;;;;;22.35;100.00;97840.63;5093339;28;20233;-80
2022/08/15 03:43:55;;;;;;;7.20;6.50;;;;;;;22.47;100.00;97832.75;5094955;27;20199;-80
2022/08/15 03:46:25;;;;;;;8.48;7.30;;;;;;;22.55;100.00;97838.78;5095811;27;20206;-80
2022/08/15 03:48:57;;;;;;;11.13;7.75;;;;;;;22.54;100.00;97844.38;5089315;28;20215;-80
2022/08/15 03:51:29;;;;;;;10.38;8.07;;;;;;;22.47;100.00;97848.94;5091694;28;20207;-80
2022/08/15 03:54:02;;;;;;;9.88;8.88;;;;;;;22.54;100.00;97842.50;5092952;28;20192;-80
2022/08/15 03:56:33;;;;;;;10.13;8.07;;;;;;;22.49;100.00;97845.03;5093183;28;20223;-80
2022/08/15 03:59:04;;;;;;;12.60;8.23;;;;;;;22.58;100.00;97842.91;5093329;28;20226;-80
2022/08/15 04:01:42;;;;;;;9.13;7.95;;;;;;;22.46;100.00;97836.50;5094608;28;20244;-80
2022/08/15 04:04:14;;;;;;;13.43;7.72;;;;;;;22.40;100.00;97834.63;5091808;28;20229;-79
2022/08/15 04:06:46;;;;;;;10.88;7.75;;;;;;;22.49;100.00;97842.31;5028351;28;20240;-79
2022/08/15 04:09:28;;;;;;;10.13;8.10;;;;;;;22.55;100.00;97836.06;5049881;28;20258;-79
2022/08/15 04:11:58;;;;;;;9.52;8.07;;;;;;;22.56;100.00;97837.72;5041746;28;20304;-79
2022/08/15 04:14:29;;;;;;;10.57;8.02;;;;;;;22.32;100.00;97829.44;5042452;28;20220;-79
2022/08/15 04:17:05;;;;;;;8.88;7.93;;;;;;;22.16;100.00;97827.94;5045648;28;20193;-79
2022/08/15 04:19:46;;;;;;;11.35;8.35;;;;;;;21.91;100.00;97816.88;5047666;28;20284;-79
2022/08/15 04:22:18;;;;;;;11.43;7.07;;;;;;;21.85;100.00;97820.38;5046676;28;20211;-80
2022/08/15 04:25:09;;;;;;;9.27;7.97;;;;;;;21.82;100.00;97818.91;5083126;28;20187;-80
2022/08/15 04:27:47;;;;;;;9.40;7.85;;;;;;;21.93;100.00;97820.19;5110578;28;20194;-79
2022/08/15 04:30:22;;;;;;;9.55;8.65;;;;;;;22.08;100.00;97823.56;5113245;28;20195;-79
2022/08/15 04:32:54;;;;;;;9.50;8.60;;;;;;;22.06;100.00;97835.56;5104137;28;20203;-80
2022/08/15 04:35:35;;;;;;;9.88;8.80;;;;;;;21.86;100.00;97835.50;5096932;28;20188;-79
2022/08/15 04:38:04;;;;;;;9.88;8.85;;;;;;;21.96;100.00;97834.09;5094863;28;20199;-80
2022/08/15 04:40:34;;;;;;;9.50;8.50;;;;;;;21.73;100.00;97830.91;5092283;28;20268;-80
2022/08/15 04:43:23;;;;;;;11.40;8.80;;;;;;;21.63;100.00;97830.47;5096750;28;20192;-80
2022/08/15 04:45:52;;;;;;;9.95;8.68;;;;;;;21.78;100.00;97836.50;5096627;28;20270;-80
2022/08/15 04:48:31;;;;;;;9.10;8.20;;;;;;;21.88;100.00;97842.34;5094894;28;20202;-80
2022/08/15 04:51:05;;;;;;;10.55;8.90;;;;;;;21.91;100.00;97850.06;5091671;28;20187;-80
2022/08/15 04:53:46;;;;;;;11.25;8.95;;;;;;;21.89;100.00;97852.09;5095182;28;20187;-79
2022/08/15 04:56:22;;;;;;;9.43;8.53;;;;;;;21.83;100.00;97854.78;5093861;28;20192;-80
2022/08/15 04:59:13;;;;;;;13.60;9.17;;;;;;;21.76;100.00;97857.44;5096382;28;20215;-80
2022/08/15 05:02:02;;;;;;;10.38;8.68;;;;;;;21.78;100.00;97866.16;5096334;28;20196;-80
2022/08/15 05:04:52;;;;;;;8.80;8.00;;;;;;;21.96;100.00;97863.75;5096607;28;20261;-80
2022/08/15 05:07:23;;;;;;;10.75;8.95;;;;;;;21.85;100.00;97864.34;5094561;28;20287;-80
2022/08/15 05:09:56;;;;;;;10.15;8.32;;;;;;;21.82;100.00;97862.06;5091164;28;20206;-80
2022/08/15 05:12:30;;;;;;;11.20;8.95;;;;;;;21.90;100.00;97866.41;5032385;28;20272;-80
2022/08/15 05:15:22;;;;;;;11.48;8.75;;;;;;;21.83;100.00;97860.19;5014071;28;20697;-80
2022/08/15 05:17:59;;;;;;;10.02;8.20;;;;;;;21.66;100.00;97855.13;5008938;28;20334;-80
2022/08/15 05:20:29;;;;;;;11.15;9.00;;;;;;;21.67;100.00;97845.19;4989228;28;20219;-80
2022/08/15 05:23:02;;;;;;;10.27;8.80;;;;;;;21.51;100.00;97861.69;4988606;28;20278;-80
2022/08/15 05:25:37;;;;;;;11.77;8.90;;;;;;;21.54;100.00;97859.44;4991351;28;20206;-80
2022/08/15 05:28:09;;;;;;;10.00;8.80;;;;;;;21.60;100.00;97861.31;4992385;28;20206;-80
2022/08/15 05:31:00;;;;;;;10.17;9.10;;;;;;;21.34;100.00;97863.88;4994589;28;20207;-80
2022/08/15 05:33:44;;;;;;;12.37;8.97;;;;;;;21.54;100.00;97869.38;4991167;28;20190;-80
2022/08/15 05:36:28;;;;;;;10.47;9.33;;;;;;;21.45;100.00;97873.28;4994065;28;20206;-79
2022/08/15 05:39:00;;;;;;;14.02;9.00;;;;;;;21.66;100.00;97863.22;5008575;28;20229;-80
2022/08/15 05:41:36;;;;;;;13.47;8.67;;;;;;;21.69;100.00;97867.38;5035622;28;20233;-80
2022/08/15 05:44:12;;;;;;;9.77;8.68;;;;;;;21.73;100.00;97865.94;5070962;28;20192;-80
2022/08/15 05:47:12;;;;;;;12.37;8.93;;;;;;;21.65;100.00;97876.91;5095591;28;20200;-80
2022/08/15 05:49:50;;;;;;;11.77;8.75;;;;;;;21.74;100.00;97873.00;5095477;28;20196;-79
2022/08/15 05:52:31;;;;;;;8.70;7.90;;;;;;;22.04;100.00;97873.53;5095498;28;20196;-79
2022/08/15 05:55:20;;;;;;;8.13;7.30;;;;;;;22.18;100.00;97864.44;5097778;27;20207;-80
2022/08/15 05:58:06;;;;;;;9.00;7.57;;;;;;;22.52;100.00;97857.25;5095396;28;20195;-79
2022/08/15 06:01:02;;;;;;;10.77;8.38;;;;;;;22.51;100.00;97856.44;5095165;28;20261;-80
2022/08/15 06:03:45;;;;;;;10.02;8.25;;;;;;;22.56;100.00;97855.81;5094559;28;20204;-79
2022/08/15 06:06:21;;;;;;;7.78;7.00;;;;;;;22.52;100.00;97852.69;5095125;28;20256;-79
2022/08/15 06:09:04;;;;;;;7.63;6.80;;;;;;;22.73;100.00;97848.13;5095415;28;20206;-80
2022/08/15 06:11:39;;;;;;;7.50;6.25;;;;;;;22.79;100.00;97852.72;5096751;28;20199;-80
2022/08/15 06:14:22;;;;;;;8.35;7.55;;;;;;;22.92;100.00;97851.91;5094870;28;20191;-80
2022/08/15 06:17:07;;;;;;;10.00;8.43;;;;;;;22.93;100.00;97862.47;5094865;28;20647;-80
2022/08/15 06:19:42;;;;;;;9.45;7.90;;;;;;;22.91;100.00;97866.44;5091267;28;20216;-80
2022/08/15 06:22:42;;;;;;;9.85;8.75;;;;;;;22.65;100.00;97870.75;5095025;28;20188;-80
2022/08/15 06:25:24;;;;;;;10.85;9.10;;;;;;;22.34;100.00;97865.94;5096340;28;20221;-80
2022/08/15 06:28:34;;;;;;;10.93;8.43;;;;;;;22.51;100.00;97867.22;5095363;28;20210;-80
2022/08/15 06:31:27;;;;;;;10.25;8.90;;;;;;;22.39;100.00;97868.88;5091956;28;20206;-79
2022/08/15 06:34:20;;;;;;;10.52;9.50;;;;;;;22.37;100.00;97880.88;5089900;28;20194;-80
2022/08/15 06:37:19;;;;;;;11.55;8.95;;;;;;;22.24;100.00;97871.75;5094630;28;20249;-80
2022/08/15 06:39:58;;;;;;;10.63;8.85;;;;;;;22.22;100.00;97881.91;5092966;28;20231;-80
2022/08/15 06:42:34;;;;;;;10.05;8.00;;;;;;;22.27;100.00;97871.31;5090112;28;20228;-80
2022/08/15 06:45:10;;;;;;;9.27;8.27;;;;;;;22.34;100.00;97865.13;5093309;28;20199;-80
2022/08/15 06:47:42;;;;;;;9.82;8.82;;;;;;;22.62;100.00;97863.09;5071357;28;20203;-80
2022/08/15 06:50:33;;;;;;;10.70;9.00;;;;;;;22.56;100.00;97864.72;5110049;28;20653;-80
2022/08/15 06:53:07;;;;;;;12.57;8.88;;;;;;;22.69;100.00;97876.59;5105031;28;20658;-80
2022/08/15 06:55:47;;;;;;;11.38;8.50;;;;;;;22.72;100.00;97873.47;5065388;28;20191;-80
2022/08/15 06:58:39;;;;;;;9.82;8.38;;;;;;;22.66;100.00;97879.69;5071664;28;20271;-79
2022/08/15 07:01:35;;;;;;;12.23;9.25;;;;;;;22.54;100.00;97891.09;5068505;28;20231;-80
2022/08/15 07:04:31;;;;;;;11.77;9.73;;;;;;;22.47;100.00;97897.50;5070380;28;20204;-79
2022/08/15 07:07:11;;;;;;;10.60;8.57;;;;;;;22.49;100.00;97903.56;5069704;28;20185;-80
2022/08/15 07:09:54;;;;;;;9.65;8.65;;;;;;;22.45;100.00;97896.91;5045790;28;20192;-80
2022/08/15 07:12:31;;;;;;;9.75;8.85;;;;;;;22.50;100.00;97892.56;5047036;28;20197;-80
2022/08/15 07:15:12;;;;;;;12.40;8.63;;;;;;;22.72;100.00;97900.47;5091969;28;20237;-79
2022/08/15 07:17:49;;;;;;;10.80;9.02;;;;;;;22.79;100.00;97894.03;5092643;28;20279;-80
2022/08/15 07:20:22;;;;;;;10.65;7.78;;;;;;;22.70;100.00;97892.56;5070713;28;20223;-79
2022/08/15 07:23:16;;;;;;;8.27;7.50;;;;;;;22.66;100.00;97894.00;5071540;28;20193;-80
2022/08/15 07:25:47;;;;;;;8.38;7.28;;;;;;;22.80;100.00;97887.59;5070228;28;20203;-80
2022/08/15 07:28:23;;;;;;;9.45;7.18;;;;;;;22.95;100.00;97886.56;5070272;28;20219;-80
2022/08/15 07:31:06;;;;;;;8.98;7.28;;;;;;;23.03;100.00;97887.19;5066078;28;20200;-80
2022/08/15 07:33:43;;;;;;;8.02;7.13;;;;;;;22.90;100.00;97895.31;5068008;28;20203;-80
2022/08/15 07:36:26;;;;;;;10.52;7.40;;;;;;;22.81;100.00;97897.34;5071259;28;20220;-80
2022/08/15 07:39:21;;;;;;;10.20;7.20;;;;;;;22.78;100.00;97900.47;5081801;28;20206;-80
2022/08/15 07:42:13;;;;;;;9.98;7.60;;;;;;;22.74;100.00;97906.47;5094044;27;20254;-79
2022/08/15 07:45:08;;;;;;;7.78;6.13;;;;;;;22.73;100.00;97919.16;5093686;28;20199;-80
2022/08/15 07:47:41;;;;;;;8.98;6.60;;;;;;;22.59;100.00;97922.06;5092193;28;20226;-80
2022/08/15 07:50:31;;;;;;;7.25;6.22;;;;;;;22.75;100.00;97918.94;5093098;28;20227;-80
2022/08/15 07:53:06;;;;;;;8.63;5.70;;;;;;;22.80;100.00;97917.31;5070898;28;20185;-80
2022/08/15 07:56:04;;;;;;;7.43;5.72;;;;;;;22.83;100.00;97913.34;5020997;28;20257;-80
2022/08/15 07:58:55;;;;;;;6.03;5.25;;;;;;;23.01;100.00;97916.28;5070792;28;20233;-80
2022/08/15 08:01:32;;;;;;;5.95;4.72;;;;;;;22.92;100.00;97920.25;5062387;28;20227;-80
2022/08/15 08:04:19;;;;;;;6.25;5.07;;;;;;;22.99;100.00;97909.44;5069675;28;20234;-79
2022/08/15 08:06:58;;;;;;;8.80;4.97;;;;;;;22.78;100.00;97913.16;5070739;28;20204;-81
2022/08/15 08:09:38;;;;;;;6.82;4.60;;;;;;;22.99;100.00;97906.75;5068583;28;20207;-81
2022/08/15 08:12:20;;;;;;;6.43;4.22;;;;;;;22.97;100.00;97901.56;5085971;28;20862;-81
2022/08/15 08:15:10;;;;;;;12.52;4.18;;;;;;;23.05;100.00;97904.03;5095348;28;20282;-80
2022/08/15 08:17:45;;;;;;;4.60;3.60;;;;;;;23.29;100.00;97889.06;5085273;28;20561;-80
2022/08/15 08:20:25;;;;;;;6.38;4.45;;;;;;;23.43;100.00;97887.13;5092840;28;20211;-80
2022/08/15 08:23:03;;;;;;;4.43;4.03;;;;;;;23.51;100.00;97903.13;5092706;28;20195;-80
2022/08/15 08:25:38;;;;;;;7.75;4.20;;;;;;;23.55;100.00;97900.84;5090301;28;20226;-80
2022/08/15 08:28:35;;;;;;;6.68;4.32;;;;;;;23.55;100.00;97903.56;5092979;28;20207;-80
2022/08/15 08:31:16;;;;;;;7.13;4.15;;;;;;;23.50;100.00;97904.19;5092895;28;20236;-80
2022/08/15 08:33:59;;;;;;;6.35;4.30;;;;;;;23.60;100.00;97904.59;5088616;28;20203;-80
2022/08/15 08:36:48;;;;;;;6.88;4.22;;;;;;;23.64;100.00;97907.69;5093204;28;20195;-80
2022/08/15 08:39:34;;;;;;;7.85;3.65;;;;;;;23.48;100.00;97902.75;5091920;28;20203;-80
2022/08/15 08:42:16;;;;;;;7.40;4.50;;;;;;;23.55;100.00;97904.38;5089571;28;20219;-80
2022/08/15 08:45:01;;;;;;;7.40;4.10;;;;;;;23.57;100.00;97907.72;5092623;28;20188;-80
2022/08/15 08:47:45;;;;;;;6.32;4.20;;;;;;;23.38;100.00;97901.31;5089400;28;20202;-80
2022/08/15 08:50:26;;;;;;;10.30;3.70;;;;;;;23.33;100.00;97906.50;5091007;28;20210;-80
2022/08/15 08:53:14;;;;;;;8.07;3.65;;;;;;;23.38;100.00;97906.72;5091303;28;20203;-80
2022/08/15 08:55:51;;;;;;;10.23;4.07;;;;;;;23.37;100.00;97912.31;5089925;28;20206;-80
2022/08/15 08:58:25;;;;;;;5.60;4.00;;;;;;;23.51;100.00;97910.41;5091662;28;20199;-79
2022/08/15 09:01:16;;;;;;;7.18;3.72;;;;;;;23.47;100.00;97915.44;5092569;28;20678;-80
2022/08/15 09:03:51;;;;;;;8.73;3.60;;;;;;;23.33;100.00;97911.91;5087005;28;20187;-80
2022/08/15 09:06:25;;;;;;;9.55;3.40;;;;;;;23.36;100.00;97921.47;5088022;28;20203;-80
2022/08/15 09:09:03;;;;;;;7.70;3.60;;;;;;;23.42;100.00;97916.03;5089189;28;20196;-80
2022/08/15 09:11:38;;;;;;;5.65;3.53;;;;;;;23.46;100.00;97913.78;5092220;28;20650;-80
2022/08/15 09:14:21;;;;;;;9.85;3.67;;;;;;;23.45;100.00;97931.03;5092974;28;20232;-80
2022/08/15 09:17:05;;;;;;;8.23;3.83;;;;;;;23.23;100.00;97926.88;5095129;28;20199;-81
2022/08/15 09:20:01;;;;;;;10.40;3.38;;;;;;;23.43;100.00;97941.19;5096355;28;20671;-80
2022/08/15 09:22:29;;;;;;;9.90;3.90;;;;;;;23.40;100.00;97941.63;5089949;28;20265;-79
2022/08/15 09:25:06;;;;;;;9.13;3.95;;;;;;;23.45;100.00;97946.38;5094985;28;20283;-79
2022/08/15 09:27:45;;;;;;;10.05;3.70;;;;;;;23.28;100.00;97944.13;5095738;28;20199;-79
2022/08/15 09:30:24;;;;;;;7.90;3.38;;;;;;;23.41;100.00;97951.38;5099737;27;20313;-79
2022/08/15 09:33:29;;;;;;;10.02;3.60;;;;;;;23.44;100.00;97956.38;5094539;28;20207;-79
2022/08/15 09:36:23;;;;;;;8.10;3.90;;;;;;;23.61;100.00;97954.09;5070155;28;20202;-80
2022/08/15 09:39:03;;;;;;;11.40;4.10;;;;;;;23.61;100.00;97951.38;5032613;28;20306;-80
2022/08/15 09:42:07;;;;;;;6.07;3.63;;;;;;;23.80;100.00;97957.78;5026421;28;20292;-80
2022/08/15 09:45:19;;;;;;;5.97;3.72;;;;;;;23.84;100.00;97964.47;5034010;28;20232;-80
2022/08/15 09:48:31;;;;;;;7.22;3.78;;;;;;;24.10;100.00;97964.34;5032204;28;20193;-80
2022/08/15 09:51:17;;;;;;;8.20;3.90;;;;;;;24.32;100.00;97966.78;5030546;28;20202;-81
2022/08/15 09:54:01;;;;;;;7.40;3.95;;;;;;;24.04;100.00;97959.81;5037784;28;20197;-80
2022/08/15 09:56:52;;;;;;;6.00;3.30;;;;;;;24.17;100.00;97961.63;5068814;28;20604;-80
2022/08/15 09:59:25;;;;;;;4.70;3.50;;;;;;;24.24;100.00;97962.44;5090162;28;20356;-80
2022/08/15 10:02:00;;;;;;;7.43;3.55;;;;;;;24.12;100.00;97964.13;5092492;28;20212;-80
2022/08/15 10:05:15;;;;;;;5.25;3.70;;;;;;;24.05;100.00;97966.06;5095275;28;20203;-80
2022/08/15 10:07:50;;;;;;;5.45;3.67;;;;;;;24.02;100.00;97961.06;5095791;28;20196;-80
2022/08/15 10:10:24;;;;;;;9.30;4.00;;;;;;;24.38;100.00;97952.41;5096814;28;20191;-80
2022/08/15 10:13:28;;;;;;;7.10;3.78;;;;;;;24.35;100.00;97950.97;5092995;28;20199;-80
2022/08/15 10:15:58;;;;;;;4.93;3.63;;;;;;;24.46;100.00;97950.28;5091965;28;20283;-80
2022/08/15 10:19:08;;;;;;;4.35;3.58;;;;;;;24.45;100.00;97956.75;5096066;27;20211;-79
2022/08/15 10:21:41;;;;;;;7.72;3.97;;;;;;;24.65;100.00;97953.09;5093928;28;20215;-79
2022/08/15 10:24:29;;;;;;;7.07;4.03;;;;;;;24.60;100.00;97955.63;5094915;28;20188;-80
2022/08/15 10:27:23;;;;;;;7.75;3.75;;;;;;;24.50;100.00;97958.78;5087221;28;20219;-80
2022/08/15 10:30:11;;;;;;;9.65;3.70;;;;;;;24.75;100.00;97954.28;5090812;28;20287;-80
2022/08/15 10:33:02;;;;;;;10.27;4.45;;;;;;;24.38;100.00;97955.94;5051175;28;20200;-80
2022/08/15 10:35:51;;;;;;;5.53;3.83;;;;;;;24.54;100.00;97949.22;5051554;28;20201;-79
2022/08/15 10:38:23;;;;;;;5.32;3.97;;;;;;;24.22;100.00;97959.09;5047508;28;20275;-80
2022/08/15 10:41:16;;;;;;;7.38;3.53;;;;;;;24.68;100.00;97963.47;5049234;28;20224;-80
2022/08/15 10:43:55;;;;;;;7.85;4.13;;;;;;;24.66;100.00;97958.28;4986031;28;20206;-80
2022/08/15 10:46:44;;;;;;;8.13;3.80;;;;;;;24.53;100.00;97961.09;4987048;28;20659;-79
2022/08/15 10:49:35;;;;;;;11.20;4.13;;;;;;;24.84;100.00;97960.25;4991155;28;20191;-80
2022/08/15 10:52:26;;;;;;;4.03;3.28;;;;;;;24.90;100.00;97959.41;4987750;28;20245;-80
2022/08/15 10:55:17;;;;;;;9.15;4.05;;;;;;;24.77;100.00;97963.00;4990838;28;20278;-78
2022/08/15 10:58:16;;;;;;;4.63;3.83;;;;;;;24.51;100.00;97960.44;4994927;28;20249;-79
2022/08/15 11:00:53;;;;;;;9.93;4.13;;;;;;;24.79;100.00;97965.50;4990371;28;20784;-79
2022/08/15 11:03:27;;;;;;;6.82;3.63;;;;;;;24.80;100.00;97967.16;5001927;28;20286;-79
2022/08/15 11:06:21;;;;;;;5.70;3.70;;;;;;;25.09;100.00;97968.44;5032128;28;20190;-80
2022/08/15 11:09:04;;;;;;;8.82;3.45;;;;;;;24.98;100.00;97966.41;5070240;28;20195;-80
2022/08/15 11:11:39;;;;;;;5.75;3.60;;;;;;;25.09;100.00;97960.31;5086744;28;20461;-80
2022/08/15 11:14:20;;;;;;;4.07;3.67;;;;;;;24.99;100.00;97960.75;5092622;28;20195;-80
2022/08/15 11:16:59;;;;;;;10.60;4.00;;;;;;;24.73;100.00;97964.50;5094593;28;20222;-79
2022/08/15 11:19:33;;;;;;;8.95;4.00;;;;;;;24.62;100.00;97967.91;5092583;28;20256;-80
2022/08/15 11:22:30;;;;;;;6.45;3.40;;;;;;;24.62;100.00;97962.50;5093671;28;20227;-80
2022/08/15 11:25:08;;;;;;;4.05;3.63;;;;;;;24.67;100.00;97972.66;5093310;28;20187;-80
2022/08/15 11:27:38;;;;;;;4.78;3.28;;;;;;;24.92;100.00;97973.56;5095781;27;20195;-80
2022/08/15 11:30:09;;;;;;;6.85;3.85;;;;;;;24.76;100.00;97972.19;5092060;28;20196;-80
2022/08/15 11:32:52;;;;;;;4.05;3.47;;;;;;;24.97;100.00;97971.00;5091035;28;20203;-80
2022/08/15 11:35:25;;;;;;;6.13;3.88;;;;;;;24.81;100.00;97969.66;5090561;28;20283;-80
2022/08/15 11:37:57;;;;;;;6.53;3.50;;;;;;;25.16;100.00;97971.94;5089078;28;20196;-80
2022/08/15 11:40:37;;;;;;;7.90;3.50;;;;;;;25.25;100.00;97967.91;4990012;28;20191;-79
2022/08/15 11:43:14;;;;;;;5.82;3.28;;;;;;;25.21;100.00;97963.16;4985784;28;20226;-80
2022/08/15 11:45:50;;;;;;;5.57;3.83;;;;;;;25.34;100.00;97973.88;4987649;28;20217;-79
2022/08/15 11:48:24;;;;;;;6.88;3.67;;;;;;;24.86;100.00;97965.47;4992445;28;20303;-79
2022/08/15 11:51:08;;;;;;;5.15;3.17;;;;;;;25.14;100.00;97971.31;4990544;28;20201;-79
2022/08/15 11:53:42;;;;;;;7.75;3.50;;;;;;;25.32;100.00;97970.56;4989254;28;20225;-79
2022/08/15 11:56:23;;;;;;;3.88;3.15;;;;;;;25.11;100.00;97969.91;4991897;28;20198;-80
2022/08/15 11:59:15;;;;;;;5.72;3.38;;;;;;;25.09;100.00;97971.13;5041253;28;20205;-79
2022/08/15 12:02:14;;;;;;;11.98;3.60;;;;;;;25.09;100.00;97985.56;5131020;27;20205;-80
2022/08/15 12:05:12;;;;;;;5.93;3.20;;;;;;;25.23;100.00;97980.03;5134132;27;20196;-79
2022/08/15 12:08:07;;;;;;;6.40;3.28;;;;;;;25.01;100.00;97985.78;5134279;27;20193;-79
2022/08/15 12:11:04;;;;;;;7.15;3.35;;;;;;;24.86;100.00;97977.13;5105713;28;20588;-80
2022/08/15 12:13:37;;;;;;;6.43;3.30;;;;;;;24.87;100.00;97976.06;5129154;27;20243;-80
2022/08/15 12:16:26;;;;;;;7.55;3.45;;;;;;;24.84;100.00;97976.50;5130776;28;20194;-79
2022/08/15 12:18:57;;;;;;;7.22;3.50;;;;;;;24.52;100.00;97972.97;5129257;28;20202;-79
2022/08/15 12:21:46;;;;;;;8.02;3.30;;;;;;;24.77;100.00;97978.44;5130568;28;20648;-79
2022/08/15 12:24:38;;;;;;;4.80;3.50;;;;;;;24.82;100.00;97984.88;5133938;28;20209;-79
2022/08/15 12:27:17;;;;;;;6.40;3.30;;;;;;;24.68;100.00;97988.69;5132674;28;20186;-79